Time;durP1;ratioP1;P1;durP2;ratioP2;P2;SDS_P1;SDS_P2;PMS_P1;PMS_P2;Temp;Humidity;BMP_temperature;BMP_pressure;BME280_temperature;BME280_humidity;BME280_pressure;Samples;Min_cycle;Max_cycle;Signal;HPM_P1;HPM_P2
2022/04/01 00:02:37;;;;;;;;;;;;;;;12.98;65.62;98349.69;5006602;28;19913;-72
2022/04/01 00:05:22;;;;;;;;;;;;;;;13.25;66.17;98358.31;5015616;28;19913;-73
2022/04/01 00:08:08;;;;;;;;;;;;;;;13.27;66.72;98358.66;5056947;22;20389;-82
2022/04/01 00:10:52;;;;;;;;;;;;;;;13.25;65.94;98358.31;5085777;28;19916;-81
2022/04/01 00:13:37;;;;;;;;;;;;;;;12.98;66.79;98357.09;5081219;28;19912;-84
2022/04/01 00:16:22;;;;;;;;;;;;;;;13.14;67.04;98352.06;5086423;28;19912;-82
2022/04/01 00:19:06;;;;;;;;;;;;;;;13.17;66.84;98345.81;5063663;28;20304;-82
2022/04/01 00:21:51;;;;;;;;;;;;;;;13.22;67.16;98342.69;5062552;28;19913;-84
2022/04/01 00:24:35;;;;;;;;;;;;;;;13.14;67.96;98341.94;5060559;28;19916;-84
2022/04/01 00:27:20;;;;;;;;;;;;;;;13.11;68.20;98330.97;5075669;28;19912;-84
2022/04/01 00:30:05;;;;;;;;;;;;;;;13.05;68.97;98327.88;5094079;28;20380;-84
2022/04/01 00:32:49;;;;;;;;;;;;;;;12.91;68.29;98325.13;5086928;28;20405;-84
2022/04/01 00:35:35;;;;;;;;;;;;;;;12.96;68.34;98324.72;5084426;28;19912;-84
2022/04/01 00:38:19;;;;;;;;;;;;;;;12.87;69.16;98335.25;5083011;28;19912;-84
2022/04/01 00:41:04;;;;;;;;;;;;;;;12.81;68.88;98332.13;5080246;28;19912;-84
2022/04/01 00:44:08;;;;;;;;;;;;;;;12.79;69.30;98333.69;5084704;28;19911;-83
2022/04/01 00:46:55;;;;;;;;;;;;;;;12.60;70.24;98321.19;5081925;28;20331;-82
2022/04/01 00:49:40;;;;;;;;;;;;;;;12.48;70.50;98315.31;5078629;28;19916;-82
2022/04/01 00:52:25;;;;;;;;;;;;;;;12.45;70.98;98316.88;5083508;28;19912;-82
2022/04/01 00:55:09;;;;;;;;;;;;;;;12.35;71.20;98320.34;5095113;28;20292;-83
2022/04/01 00:57:54;;;;;;;;;;;;;;;12.38;71.12;98309.47;5080014;28;19999;-83
2022/04/01 01:00:39;;;;;;;;;;;;;;;12.09;72.12;98307.03;5082269;28;20303;-82
2022/04/01 01:03:23;;;;;;;;;;;;;;;11.94;73.07;98304.25;5081909;28;19912;-83
2022/04/01 01:06:08;;;;;;;;;;;;;;;11.90;73.19;98302.66;5079948;28;19911;-83
2022/04/01 01:08:53;;;;;;;;;;;;;;;11.88;72.99;98305.03;5094421;28;19916;-83
2022/04/01 01:11:38;;;;;;;;;;;;;;;11.93;73.11;98302.72;5082251;28;20287;-82
2022/04/01 01:14:24;;;;;;;;;;;;;;;11.65;73.93;98307.19;5080403;28;19912;-83
2022/04/01 01:17:12;;;;;;;;;;;;;;;11.91;73.89;98307.75;5094744;28;19912;-83
2022/04/01 01:19:57;;;;;;;;;;;;;;;11.94;73.77;98309.69;5081318;28;19915;-82
2022/04/01 01:22:42;;;;;;;;;;;;;;;12.22;72.85;98314.47;5094420;28;20381;-82
2022/04/01 01:25:27;;;;;;;;;;;;;;;12.46;71.85;98318.44;5083946;28;19915;-82
2022/04/01 01:28:11;;;;;;;;;;;;;;;12.40;71.36;98314.50;5094453;28;19916;-83
2022/04/01 01:30:55;;;;;;;;;;;;;;;12.08;71.60;98311.72;5093680;28;19911;-82
2022/04/01 01:33:43;;;;;;;;;;;;;;;12.00;72.05;98310.88;5085438;28;19912;-80
2022/04/01 01:36:30;;;;;;;;;;;;;;;12.10;72.09;98309.38;5076038;28;19913;-81
2022/04/01 01:39:14;;;;;;;;;;;;;;;12.07;72.04;98307.41;5073934;28;20566;-81
2022/04/01 01:41:59;;;;;;;;;;;;;;;12.07;72.21;98295.75;5092919;28;19912;-81
2022/04/01 01:44:43;;;;;;;;;;;;;;;11.88;72.67;98288.69;5082092;28;19912;-80
2022/04/01 01:47:28;;;;;;;;;;;;;;;11.72;72.92;98286.25;5080243;28;19912;-80
2022/04/01 01:56:19;;;;;;;;;;;;;;;11.55;74.09;98271.38;5078636;28;20404;-79
2022/04/01 01:59:14;;;;;;;;;;;;;;;11.47;74.05;98279.88;5093284;28;19912;-82
2022/04/01 02:02:00;;;;;;;;;;;;;;;11.53;73.48;98265.53;5079440;28;19912;-81
2022/04/01 02:04:45;;;;;;;;;;;;;;;11.68;73.15;98268.34;5083953;28;19912;-81
2022/04/01 02:07:30;;;;;;;;;;;;;;;11.87;72.59;98268.03;5081952;28;20368;-79
2022/04/01 02:10:16;;;;;;;;;;;;;;;11.89;72.69;98273.88;5079578;28;19916;-80
2022/04/01 02:13:00;;;;;;;;;;;;;;;11.92;72.57;98273.13;5092986;28;19916;-80
2022/04/01 02:15:45;;;;;;;;;;;;;;;12.07;72.19;98266.56;5082338;28;19912;-80
2022/04/01 02:18:29;;;;;;;;;;;;;;;11.97;72.57;98270.03;5080291;28;19912;-80
2022/04/01 02:21:15;;;;;;;;;;;;;;;12.06;72.20;98280.56;5077737;28;19916;-79
2022/04/01 02:24:00;;;;;;;;;;;;;;;12.20;71.79;98283.31;5093285;28;19920;-80
2022/04/01 02:26:47;;;;;;;;;;;;;;;12.28;71.66;98279.47;5093346;28;19912;-81
2022/04/01 02:29:32;;;;;;;;;;;;;;;12.08;72.63;98280.97;5071567;28;19916;-80
2022/04/01 02:32:39;;;;;;;;;;;;;;;12.23;72.48;98272.44;5093290;28;19912;-81
2022/04/01 02:36:03;;;;;;;;;;;;;;;12.02;73.05;98271.59;5093695;28;20292;-81
2022/04/01 02:38:50;;;;;;;;;;;;;;;11.69;74.29;98275.31;5080113;28;19912;-82
2022/04/01 02:41:37;;;;;;;;;;;;;;;11.93;73.97;98289.09;5084024;28;19916;-80
2022/04/01 02:44:22;;;;;;;;;;;;;;;11.74;74.05;98288.59;5083102;28;19912;-81
2022/04/01 02:47:07;;;;;;;;;;;;;;;11.85;74.27;98281.25;5081168;28;19911;-79
2022/04/01 02:49:52;;;;;;;;;;;;;;;11.81;73.98;98285.91;5070012;28;19916;-80
2022/04/01 02:52:36;;;;;;;;;;;;;;;11.91;73.99;98293.34;5071778;28;19912;-82
2022/04/01 02:55:22;;;;;;;;;;;;;;;12.08;73.12;98286.41;5092906;28;19912;-81
2022/04/01 02:58:08;;;;;;;;;;;;;;;12.00;72.74;98286.38;5079563;28;20364;-80
2022/04/01 03:00:53;;;;;;;;;;;;;;;12.09;72.27;98277.09;5076677;28;20328;-83
2022/04/01 03:03:41;;;;;;;;;;;;;;;12.15;72.21;98280.97;5081325;28;20320;-80
2022/04/01 03:06:28;;;;;;;;;;;;;;;12.10;72.84;98287.56;5092530;28;19912;-79
2022/04/01 03:09:13;;;;;;;;;;;;;;;12.28;71.99;98279.47;5076054;28;19920;-80
2022/04/01 03:12:06;;;;;;;;;;;;;;;12.28;71.92;98280.25;5092266;28;20296;-80
2022/04/01 03:15:19;;;;;;;;;;;;;;;12.13;72.66;98267.75;5085920;28;19912;-80
2022/04/01 03:18:23;;;;;;;;;;;;;;;12.12;72.40;98260.75;5088220;28;20296;-80
2022/04/01 03:21:09;;;;;;;;;;;;;;;12.11;72.43;98267.34;5069725;28;19916;-80
2022/04/01 03:23:56;;;;;;;;;;;;;;;12.02;73.11;98266.16;5081773;28;20376;-80
2022/04/01 03:26:41;;;;;;;;;;;;;;;11.95;73.89;98272.34;5080332;28;19912;-80
2022/04/01 03:29:26;;;;;;;;;;;;;;;11.93;74.04;98278.19;5091543;28;19916;-80
2022/04/01 03:32:11;;;;;;;;;;;;;;;11.95;74.32;98278.56;5082390;28;19912;-80
2022/04/01 03:34:56;;;;;;;;;;;;;;;11.99;73.85;98279.38;5072842;28;20387;-81
2022/04/01 03:37:41;;;;;;;;;;;;;;;11.95;73.83;98267.69;5077186;28;19912;-80
2022/04/01 03:40:28;;;;;;;;;;;;;;;11.93;74.24;98264.59;5075333;28;19912;-80
2022/04/01 03:43:13;;;;;;;;;;;;;;;11.85;74.61;98268.41;5082913;28;19912;-80
2022/04/01 03:45:58;;;;;;;;;;;;;;;11.87;74.77;98260.66;5072074;28;20290;-80
2022/04/01 03:49:01;;;;;;;;;;;;;;;11.80;75.13;98268.00;5058885;28;19916;-80
2022/04/01 03:51:47;;;;;;;;;;;;;;;11.79;75.57;98269.94;5069747;28;19912;-80
2022/04/01 03:54:32;;;;;;;;;;;;;;;11.73;75.97;98268.78;5080689;28;19912;-80
2022/04/01 03:57:25;;;;;;;;;;;;;;;11.71;76.16;98264.84;5093883;28;20372;-80
2022/04/01 04:00:30;;;;;;;;;;;;;;;11.67;76.46;98270.28;5096456;28;19912;-80
2022/04/01 04:03:16;;;;;;;;;;;;;;;11.29;78.37;98270.81;5078528;28;19912;-80
2022/04/01 04:06:00;;;;;;;;;;;;;;;11.22;79.53;98274.31;5091902;28;20288;-80
2022/04/01 04:08:46;;;;;;;;;;;;;;;10.91;81.12;98283.00;5079124;28;20387;-79
2022/04/01 04:11:32;;;;;;;;;;;;;;;10.67;82.44;98281.63;5079185;28;19912;-80
2022/04/01 04:14:33;;;;;;;;;;;;;;;10.62;82.85;98276.53;5076840;28;19912;-80
2022/04/01 04:17:39;;;;;;;;;;;;;;;10.64;82.68;98271.50;5080374;28;19912;-79
2022/04/01 04:20:36;;;;;;;;;;;;;;;10.66;82.80;98280.88;5074950;28;19915;-80
2022/04/01 04:23:21;;;;;;;;;;;;;;;10.62;83.02;98279.25;5074783;28;19911;-80
2022/04/01 04:26:12;;;;;;;;;;;;;;;10.54;82.82;98272.19;5077852;28;19911;-79
2022/04/01 04:29:02;;;;;;;;;;;;;;;10.34;83.71;98271.63;5090903;28;19915;-80
2022/04/01 04:32:08;;;;;;;;;;;;;;;10.55;83.19;98269.13;5103255;28;20441;-81
2022/04/01 04:34:55;;;;;;;;;;;;;;;10.48;83.10;98263.59;5082375;28;19921;-80
2022/04/01 04:37:45;;;;;;;;;;;;;;;10.35;83.51;98261.53;5083600;28;19912;-79
2022/04/01 04:40:34;;;;;;;;;;;;;;;10.17;84.42;98262.13;5087541;28;19912;-80
2022/04/01 04:43:30;;;;;;;;;;;;;;;10.22;84.44;98261.81;5094562;28;20384;-81
2022/04/01 04:46:15;;;;;;;;;;;;;;;10.20;84.53;98264.13;5084914;28;19912;-80
2022/04/01 04:49:01;;;;;;;;;;;;;;;10.00;85.19;98265.44;5081510;28;19916;-80
2022/04/01 04:51:50;;;;;;;;;;;;;;;9.97;85.79;98271.59;5084489;28;19915;-81
2022/04/01 04:54:53;;;;;;;;;;;;;;;9.88;86.09;98269.16;5090265;28;19912;-79
2022/04/01 04:57:49;;;;;;;;;;;;;;;10.97;82.71;98276.81;5081806;28;19912;-83
2022/04/01 05:00:33;;;;;;;;;;;;;;;9.95;84.47;98279.34;5089660;28;19900;-82
2022/04/01 05:03:48;;;;;;;;;;;;;;;9.80;86.03;98288.47;5113641;28;19904;-83
2022/04/01 05:06:39;;;;;;;;;;;;;;;9.90;86.06;98297.88;5099363;28;19916;-84
2022/04/01 05:09:58;;;;;;;;;;;;;;;10.28;85.27;98295.63;5104068;28;20320;-82
2022/04/01 05:12:43;;;;;;;;;;;;;;;10.38;83.65;98298.81;5072748;28;19912;-82
2022/04/01 05:15:56;;;;;;;;;;;;;;;10.51;83.08;98298.19;5080306;28;20289;-83
2022/04/01 05:18:50;;;;;;;;;;;;;;;10.60;82.50;98295.94;5076106;28;19920;-84
2022/04/01 05:21:38;;;;;;;;;;;;;;;10.66;81.97;98299.13;5078162;28;19920;-82
2022/04/01 05:24:27;;;;;;;;;;;;;;;10.70;81.48;98297.19;5069282;28;20450;-83
2022/04/01 05:27:24;;;;;;;;;;;;;;;10.80;81.49;98303.88;5074196;28;19912;-82
2022/04/01 05:30:20;;;;;;;;;;;;;;;10.64;82.44;98312.28;5070737;28;20292;-81
2022/04/01 05:33:25;;;;;;;;;;;;;;;10.59;82.73;98307.97;5075982;28;19912;-81
2022/04/01 05:36:11;;;;;;;;;;;;;;;10.67;82.11;98312.31;5077875;28;19912;-80
2022/04/01 05:38:57;;;;;;;;;;;;;;;10.81;81.79;98313.59;5076252;28;19912;-83
2022/04/01 05:41:42;;;;;;;;;;;;;;;10.99;80.60;98320.75;5071618;28;19912;-82
2022/04/01 05:44:27;;;;;;;;;;;;;;;11.01;80.13;98323.09;5075352;28;19916;-82
2022/04/01 05:47:12;;;;;;;;;;;;;;;10.99;80.70;98326.19;5055947;28;20305;-82
2022/04/01 05:49:58;;;;;;;;;;;;;;;10.92;80.64;98330.78;5059724;28;19916;-81
2022/04/01 05:52:45;;;;;;;;;;;;;;;11.18;79.96;98330.59;5063803;28;19912;-81
2022/04/01 05:55:30;;;;;;;;;;;;;;;11.03;81.27;98335.16;5073753;28;19912;-82
2022/04/01 05:58:15;;;;;;;;;;;;;;;11.19;80.27;98334.09;5060013;28;20373;-81
2022/04/01 06:01:07;;;;;;;;;;;;;;;11.32;79.64;98336.16;5070438;28;19913;-82
2022/04/01 06:04:12;;;;;;;;;;;;;;;11.50;79.05;98342.50;5075361;28;19912;-81
2022/04/01 06:07:06;;;;;;;;;;;;;;;11.50;79.86;98349.88;5076178;28;20339;-82
2022/04/01 06:09:51;;;;;;;;;;;;;;;11.32;80.09;98343.53;5092936;22;20301;-71
2022/04/01 06:13:14;;;;;;;;;;;;;;;11.47;79.79;98350.66;5086828;28;20363;-71
2022/04/01 06:16:20;;;;;;;;;;;;;;;11.24;80.68;98347.34;5093573;28;19912;-71
2022/04/01 06:19:34;;;;;;;;;;;;;;;11.24;81.04;98347.34;5073098;28;20375;-71
2022/04/01 06:22:20;;;;;;;;;;;;;;;11.15;82.26;98362.06;5073217;28;19912;-71
2022/04/01 06:25:17;;;;;;;;;;;;;;;11.27;81.56;98357.50;5070258;28;19913;-71
2022/04/01 06:28:15;;;;;;;;;;;;;;;11.70;78.97;98359.34;5058390;28;19913;-71
2022/04/01 06:31:05;;;;;;;;;;;;;;;11.56;80.37;98360.03;5065428;28;19916;-71
2022/04/01 06:34:05;;;;;;;;;;;;;;;11.47;80.48;98361.53;5065251;28;19913;-71
2022/04/01 06:36:51;;;;;;;;;;;;;;;11.69;80.56;98356.97;5076070;28;19913;-71
2022/04/01 06:39:42;;;;;;;;;;;;;;;11.49;80.28;98348.31;5072536;28;19916;-71
2022/04/01 06:42:27;;;;;;;;;;;;;;;11.73;79.61;98353.19;5072824;28;20393;-71
2022/04/01 06:45:30;;;;;;;;;;;;;;;11.89;78.88;98344.69;5072770;28;19912;-71
2022/04/01 06:48:33;;;;;;;;;;;;;;;11.85;78.79;98346.59;5072935;28;19913;-71
2022/04/01 06:51:37;;;;;;;;;;;;;;;11.93;78.81;98351.72;5072649;28;19917;-71
2022/04/01 06:54:40;;;;;;;;;;;;;;;12.38;77.09;98353.06;5071521;28;19912;-71
2022/04/01 06:57:43;;;;;;;;;;;;;;;12.35;76.47;98355.78;5068338;28;19912;-71
2022/04/01 07:00:47;;;;;;;;;;;;;;;12.23;77.41;98356.13;5067433;28;19916;-71
2022/04/01 07:03:33;;;;;;;;;;;;;;;11.95;78.13;98352.13;5072183;28;19920;-71
2022/04/01 07:06:18;;;;;;;;;;;;;;;12.21;76.95;98356.50;5072286;28;19912;-71
2022/04/01 07:09:02;;;;;;;;;;;;;;;12.65;75.42;98350.00;5064670;28;19916;-71
2022/04/01 07:11:47;;;;;;;;;;;;;;;12.62;75.11;98358.97;5069686;28;19912;-71
2022/04/01 07:14:31;;;;;;;;;;;;;;;12.99;73.11;98361.38;5052759;28;19912;-71
2022/04/01 07:17:18;;;;;;;;;;;;;;;13.40;71.98;98370.00;5065013;28;19912;-71
2022/04/01 07:20:03;;;;;;;;;;;;;;;13.15;71.97;98368.03;5072523;28;19912;-71
2022/04/01 07:22:48;;;;;;;;;;;;;;;13.05;72.09;98365.28;5059250;28;19913;-71
2022/04/01 07:25:32;;;;;;;;;;;;;;;13.15;71.53;98370.00;5071970;28;19912;-71
2022/04/01 07:28:17;;;;;;;;;;;;;;;12.77;73.55;98366.00;5075684;28;19912;-71
2022/04/01 07:32:29;;;;;;;;;;;;;;;12.54;74.88;98373.75;5071804;28;20383;-71
2022/04/01 07:34:05;;;;;;;;;;;;;;;12.45;74.06;98368.66;5066427;28;20311;-71
2022/04/01 07:36:50;;;;;;;;;;;;;;;12.38;75.11;98371.38;5061738;28;20407;-71
2022/04/01 07:39:35;;;;;;;;;;;;;;;12.64;72.99;98365.63;5060979;28;20383;-71
2022/04/01 07:42:21;;;;;;;;;;;;;;;12.97;71.77;98371.88;5069828;28;19916;-71
2022/04/01 07:45:06;;;;;;;;;;;;;;;12.58;73.20;98372.59;5068656;28;20299;-71
2022/04/01 07:47:51;;;;;;;;;;;;;;;12.51;73.75;98380.75;5069207;28;19912;-71
2022/04/01 07:50:36;;;;;;;;;;;;;;;12.84;72.71;98383.19;5057804;28;19916;-71
2022/04/01 07:53:21;;;;;;;;;;;;;;;12.91;72.56;98382.41;5072293;28;19912;-71
2022/04/01 07:56:05;;;;;;;;;;;;;;;12.98;71.11;98378.91;5077745;28;19912;-71
2022/04/01 07:58:50;;;;;;;;;;;;;;;13.17;70.05;98387.53;5072002;28;19944;-71
2022/04/01 08:01:35;;;;;;;;;;;;;;;13.49;69.54;98389.47;5067052;28;19912;-71
2022/04/01 08:04:20;;;;;;;;;;;;;;;13.52;69.10;98389.47;5059458;28;20366;-71
2022/04/01 08:07:05;;;;;;;;;;;;;;;13.20;69.69;98384.03;5061896;28;19912;-71
2022/04/01 08:09:49;;;;;;;;;;;;;;;13.12;70.55;98392.59;5064671;28;20282;-71
2022/04/01 08:12:34;;;;;;;;;;;;;;;12.92;70.81;98399.53;5062939;28;19913;-71
2022/04/01 08:15:19;;;;;;;;;;;;;;;12.97;69.58;98399.16;5056045;28;19916;-71
2022/04/01 08:18:03;;;;;;;;;;;;;;;13.26;69.52;98403.50;5088065;28;19912;-71
2022/04/01 08:20:48;;;;;;;;;;;;;;;13.24;69.42;98405.84;5075882;28;19921;-71
2022/04/01 08:23:35;;;;;;;;;;;;;;;13.12;70.63;98408.97;5070494;28;19912;-71
2022/04/01 08:26:19;;;;;;;;;;;;;;;12.57;72.43;98411.16;5070715;28;19912;-71
2022/04/01 08:29:03;;;;;;;;;;;;;;;12.94;72.19;98414.38;5065934;28;19913;-71
2022/04/01 08:31:47;;;;;;;;;;;;;;;12.88;72.08;98415.91;5069268;28;19913;-71
2022/04/01 08:34:32;;;;;;;;;;;;;;;12.75;72.75;98415.47;5072328;28;19913;-71
2022/04/01 08:37:17;;;;;;;;;;;;;;;12.77;72.80;98418.63;5071722;28;19917;-71
2022/04/01 08:40:04;;;;;;;;;;;;;;;12.94;72.42;98419.03;5067811;28;19912;-71
2022/04/01 08:42:49;;;;;;;;;;;;;;;12.94;72.31;98427.22;5074803;28;19916;-71
2022/04/01 08:45:35;;;;;;;;;;;;;;;13.12;71.68;98419.88;5074723;28;19912;-71
2022/04/01 08:48:20;;;;;;;;;;;;;;;12.99;71.73;98421.38;5074968;28;19912;-71
2022/04/01 08:51:05;;;;;;;;;;;;;;;12.71;72.09;98425.59;5067647;28;19917;-71
2022/04/01 08:53:49;;;;;;;;;;;;;;;13.31;69.83;98433.16;5074888;28;20363;-71
2022/04/01 08:56:34;;;;;;;;;;;;;;;13.25;70.84;98434.72;5075078;28;19912;-71
2022/04/01 08:59:18;;;;;;;;;;;;;;;13.04;71.73;98434.66;5074670;28;19912;-71
2022/04/01 09:02:06;;;;;;;;;;;;;;;13.28;70.47;98434.72;5075156;28;19913;-71
2022/04/01 09:05:02;;;;;;;;;;;;;;;13.09;71.09;98442.47;5074765;28;19912;-71
2022/04/01 09:07:47;;;;;;;;;;;;;;;12.91;72.58;98444.34;5074676;28;19920;-71
2022/04/01 09:10:49;;;;;;;44.25;25.35;;;;;;;13.98;69.89;98446.78;5073829;28;20432;-75
2022/04/01 09:13:54;;;;;;;37.30;21.20;;;;;;;14.61;64.66;98452.50;5074639;28;20051;-75
2022/04/01 09:16:41;;;;;;;42.67;20.85;;;;;;;14.66;62.62;98450.13;5074119;28;20040;-74
2022/04/01 09:19:31;;;;;;;40.40;23.15;;;;;;;14.73;62.49;98443.84;5080569;28;20043;-79
2022/04/01 09:22:24;;;;;;;34.33;20.25;;;;;;;14.81;62.64;98445.38;5082810;28;20044;-79
2022/04/01 09:25:14;;;;;;;46.05;22.60;;;;;;;14.86;62.06;98453.16;5087110;28;20052;-79
2022/04/01 09:27:59;;;;;;;32.72;20.48;;;;;;;14.80;62.38;98455.53;5084426;28;20032;-81
2022/04/01 09:30:45;;;;;;;33.83;19.38;;;;;;;14.76;61.46;98449.28;5078248;28;20047;-79
2022/04/01 09:33:47;;;;;;;;;;;;;;;14.79;62.21;98458.66;5082319;28;20602;-80
2022/04/01 09:36:36;;;;;;;35.58;19.30;;;;;;;14.91;61.83;98459.00;5073835;28;19916;-80
2022/04/01 09:39:24;;;;;;;54.58;21.85;;;;;;;15.20;62.58;98456.06;5062509;28;20051;-80
2022/04/01 09:42:12;;;;;;;30.08;18.38;;;;;;;15.25;61.03;98458.38;5071617;28;20415;-80
2022/04/01 09:45:00;;;;;;;33.25;19.30;;;;;;;15.10;59.99;98462.41;5071152;28;20051;-79
2022/04/01 09:48:02;;;;;;;50.25;21.15;;;;;;;15.23;61.13;98456.06;5087231;28;20044;-80
2022/04/01 09:50:56;;;;;;;30.35;19.30;;;;;;;14.64;64.45;98463.41;5073898;28;20044;-78
2022/04/01 09:53:53;;;;;;;31.77;20.38;;;;;;;15.11;63.42;98451.06;5065037;28;20048;-78
2022/04/01 09:56:43;;;;;;;32.63;20.25;;;;;;;15.02;64.10;98458.94;5073419;28;20036;-78
2022/04/01 09:59:31;;;;;;;28.27;17.60;;;;;;;15.21;62.51;98463.13;5073096;28;20040;-78
2022/04/01 10:02:17;;;;;;;30.92;18.75;;;;;;;15.15;63.01;98462.75;5073302;28;20044;-78
2022/04/01 10:05:03;;;;;;;30.58;19.38;;;;;;;14.97;63.85;98464.84;5064817;28;20044;-79
2022/04/01 10:07:48;;;;;;;33.80;19.20;;;;;;;14.72;65.17;98467.69;5061634;28;20041;-78
2022/04/01 10:10:35;;;;;;;31.95;19.77;;;;;;;14.70;65.10;98466.50;5057903;28;20056;-77
2022/04/01 10:13:24;;;;;;;40.40;19.63;;;;;;;14.50;66.42;98461.50;5073010;28;20155;-78
2022/04/01 10:16:10;;;;;;;28.75;18.63;;;;;;;14.43;67.09;98467.00;5072954;28;20041;-77
2022/04/01 10:18:59;;;;;;;31.20;19.58;;;;;;;14.46;66.98;98468.16;5072710;28;20047;-79
2022/04/01 10:21:45;;;;;;;28.85;17.38;;;;;;;14.43;67.62;98475.19;5072927;28;20044;-77
2022/04/01 10:25:03;;;;;;;27.63;16.73;;;;;;;14.28;67.36;98470.13;5044394;28;20060;-78
2022/04/01 10:27:50;;;;;;;30.25;17.15;;;;;;;14.87;65.80;98468.41;5055102;28;20057;-77
2022/04/01 10:30:35;;;;;;;35.65;19.00;;;;;;;15.20;63.74;98461.56;5072288;28;20045;-78
2022/04/01 10:33:26;;;;;;;23.63;14.20;;;;;;;15.57;62.55;98464.47;5058917;28;20411;-79
2022/04/01 10:36:15;;;;;;;28.27;19.42;;;;;;;15.89;60.80;98460.69;5066442;28;20036;-78
2022/04/01 10:39:07;;;;;;;32.03;18.42;;;;;;;15.44;62.07;98460.59;5071772;28;20049;-78
2022/04/01 10:42:12;;;;;;;30.38;17.88;;;;;;;15.54;61.80;98450.81;5056598;28;20029;-78
2022/04/01 10:44:58;;;;;;;;;;;;;;;15.40;61.54;98457.09;5064734;28;20052;-78
2022/04/01 10:51:39;;;;;;;27.95;15.40;;;;;;;17.00;56.64;98465.31;5072188;28;20047;-77
2022/04/01 10:54:24;;;;;;;26.73;16.77;;;;;;;16.59;58.23;98464.66;5057467;28;20136;-78
2022/04/01 10:57:12;;;;;;;25.20;16.35;;;;;;;15.74;60.72;98469.03;5072213;28;20037;-78
2022/04/01 11:00:04;;;;;;;34.42;17.58;;;;;;;15.92;60.38;98460.63;5058936;28;20032;-77
2022/04/01 11:02:50;;;;;;;30.63;18.17;;;;;;;15.40;61.72;98466.09;5066524;28;20044;-78
2022/04/01 11:05:35;;;;;;;31.38;19.60;;;;;;;16.30;58.14;98461.44;5055661;28;20041;-76
2022/04/01 11:08:21;;;;;;;27.92;17.17;;;;;;;16.62;58.04;98466.59;5070508;28;20048;-78
2022/04/01 11:11:10;;;;;;;;;;;;;;;16.01;58.74;98460.16;5064504;28;20037;-76
2022/04/01 11:14:02;;;;;;;;;;;;;;;17.33;54.95;98460.13;5053455;28;19913;-76
2022/04/01 11:16:48;;;;;;;;;;;;;;;17.14;55.40;98469.06;5064189;28;20334;-76
2022/04/01 11:19:32;;;;;;;;;;;;;;;16.83;56.96;98469.06;5070368;28;19913;-76
2022/04/01 11:22:40;;;;;;;;;;;;;;;17.43;55.85;98476.47;5052313;28;20372;-76
2022/04/01 11:25:25;;;;;;;;;;;;;;;18.24;51.97;98477.09;5056917;28;19913;-76
2022/04/01 11:28:14;;;;;;;;;;;;;;;18.25;52.00;98464.13;5060794;28;19913;-76
2022/04/01 11:31:01;;;;;;;;;;;;;;;16.91;55.83;98467.03;5053340;28;19916;-76
2022/04/01 11:33:56;;;;;;;;;;;;;;;17.44;53.49;98460.75;5061161;28;19912;-76
2022/04/01 11:36:42;;;;;;;;;;;;;;;17.29;54.16;98464.91;5066863;28;19912;-76
2022/04/01 11:39:27;;;;;;;;;;;;;;;17.45;51.95;98456.81;5059010;28;19916;-76
2022/04/01 11:42:12;;;;;;;;;;;;;;;17.14;53.20;98455.31;5057253;28;19920;-76
2022/04/01 11:44:58;;;;;;;;;;;;;;;16.96;51.96;98459.09;5054995;28;19913;-76
2022/04/01 11:47:43;;;;;;;;;;;;;;;16.64;52.68;98450.50;5069133;28;20299;-76
2022/04/01 11:50:27;;;;;;;;;;;;;;;16.81;51.30;98454.97;5062011;28;19920;-76
2022/04/01 11:53:22;;;;;;;;;;;;;;;17.33;49.15;98452.69;5059907;28;19916;-76
2022/04/01 11:56:08;;;;;;;;;;;;;;;17.27;49.10;98453.56;5080262;28;19916;-76
2022/04/01 11:58:55;;;;;;;;;;;;;;;16.71;50.44;98453.13;5073437;28;19912;-76
2022/04/01 12:01:55;;;;;;;;;;;;;;;17.16;49.11;98445.50;5066931;28;19913;-76
2022/04/01 12:04:39;;;;;;;;;;;;;;;18.27;46.40;98448.00;5071950;28;19912;-76
2022/04/01 12:10:28;;;;;;;;;;;;;;;18.83;44.59;98448.84;5078927;22;19920;-73
2022/04/01 12:13:13;;;;;;;;;;;;;;;19.58;44.02;98443.22;5069466;28;19916;-74
2022/04/01 12:15:58;;;;;;;;;;;;;;;19.41;44.01;98436.13;5078925;28;19912;-73
2022/04/01 12:18:49;;;;;;;;;;;;;;;19.99;42.07;98436.31;5071048;28;20982;-73
2022/04/01 12:21:33;;;;;;;;;;;;;;;20.86;40.25;98443.38;5065952;28;19949;-73
2022/04/01 12:24:18;;;;;;;;;;;;;;;21.62;39.59;98443.41;5069040;28;20367;-73
2022/04/01 12:27:05;;;;;;;;;;;;;;;20.21;41.35;98442.81;5073954;28;19916;-73
2022/04/01 12:29:50;;;;;;;;;;;;;;;20.34;41.20;98440.91;5058804;28;19912;-74
2022/04/01 12:32:34;;;;;;;;;;;;;;;19.86;41.32;98438.97;5072799;28;19916;-74
2022/04/01 12:35:19;;;;;;;;;;;;;;;19.67;42.24;98442.63;5074747;28;19912;-74
2022/04/01 12:38:03;;;;;;;;;;;;;;;18.52;43.92;98439.25;5077992;28;19912;-72
2022/04/01 12:40:48;;;;;;;;;;;;;;;18.55;44.23;98439.19;5095358;28;19912;-72
2022/04/01 12:43:36;;;;;;;;;;;;;;;19.14;43.10;98438.34;5079288;28;20325;-72
2022/04/01 12:46:22;;;;;;;;;;;;;;;18.24;44.57;98432.31;5094881;28;19912;-72
2022/04/01 12:49:11;;;;;;;;;;;;;;;18.88;43.47;98433.81;5095382;28;19912;-72
2022/04/01 12:52:16;;;;;;;;;;;;;;;18.34;44.58;98434.06;5095040;28;19916;-72
2022/04/01 12:55:01;;;;;;;;;;;;;;;19.38;42.66;98425.97;5089391;28;19916;-72
2022/04/01 12:57:51;;;;;;;;;;;;;;;20.30;40.69;98422.88;5071003;28;19912;-72
2022/04/01 13:00:35;;;;;;;;;;;;;;;18.82;43.08;98422.50;5085990;28;19912;-73
2022/04/01 13:03:23;;;;;;;;;;;;;;;19.26;40.79;98421.13;5071928;28;19912;-72
2022/04/01 13:06:12;;;;;;;;;;;;;;;18.05;43.65;98427.56;5069949;28;19912;-72
2022/04/01 13:08:59;;;;;;;;;;;;;;;17.66;45.39;98414.50;5074136;28;19912;-72
2022/04/01 13:11:44;;;;;;;;;;;;;;;17.61;44.27;98425.97;5074089;28;19916;-72
2022/04/01 13:14:33;;;;;;;;;;;;;;;17.65;45.62;98421.19;5072653;28;19912;-71
2022/04/01 13:17:18;;;;;;;;;;;;;;;17.40;45.85;98419.59;5068456;28;19913;-72
2022/04/01 13:20:02;;;;;;;;;;;;;;;17.71;45.48;98414.81;5068110;28;19913;-72
2022/04/01 13:22:47;;;;;;;;;;;;;;;17.82;45.11;98418.16;5073520;28;19975;-71
2022/04/01 13:25:33;;;;;;;;;;;;;;;17.94;44.23;98422.25;5074211;28;19913;-72
2022/04/01 13:28:17;;;;;;;;;;;;;;;18.70;43.80;98420.41;5065218;28;19912;-72
2022/04/01 13:31:06;;;;;;;;;;;;;;;18.54;42.43;98414.88;5056985;28;19916;-72
2022/04/01 13:33:50;;;;;;;;;;;;;;;19.17;42.39;98415.44;5072806;28;19912;-72
2022/04/01 13:36:36;;;;;;;;;;;;;;;19.66;41.32;98413.50;5066387;28;19913;-72
2022/04/01 13:39:20;;;;;;;;;;;;;;;20.08;40.44;98411.63;5073769;28;19912;-72
2022/04/01 13:42:05;;;;;;;;;;;;;;;19.48;40.73;98413.94;5066804;28;19916;-72
2022/04/01 13:44:50;;;;;;;;;;;;;;;19.88;40.34;98400.72;5073123;28;19912;-72
2022/04/01 13:47:34;;;;;;;;;;;;;;;20.02;39.27;98411.38;5073701;28;19916;-72
2022/04/01 13:50:19;;;;;;;;;;;;;;;20.25;38.44;98407.59;5058419;28;19916;-73
2022/04/01 13:53:03;;;;;;;;;;;;;;;20.32;37.84;98407.44;5073214;28;19912;-72
2022/04/01 13:55:48;;;;;;;;;;;;;;;20.54;38.18;98418.66;5072102;28;19912;-71
2022/04/01 13:58:33;;;;;;;;;;;;;;;21.43;36.19;98410.47;5070069;28;19912;-71
2022/04/01 14:01:18;;;;;;;;;;;;;;;20.44;37.11;98403.94;5073378;28;19912;-72
2022/04/01 14:04:02;;;;;;;;;;;;;;;21.41;35.63;98401.84;5060961;28;19913;-72
2022/04/01 14:06:50;;;;;;;;;;;;;;;20.95;35.50;98403.25;5072727;28;19912;-71
2022/04/01 14:09:36;;;;;;;;;;;;;;;18.75;41.12;98404.16;5071782;28;20367;-72
2022/04/01 14:12:20;;;;;;;;;;;;;;;19.89;38.30;98402.28;5072594;28;20371;-72
2022/04/01 14:15:05;;;;;;;;;;;;;;;19.71;38.03;98403.94;5054543;28;20136;-72
2022/04/01 14:17:50;;;;;;;;;;;;;;;19.63;39.18;98397.81;5073183;28;19912;-72
2022/04/01 14:20:35;;;;;;;;;;;;;;;19.74;39.77;98390.06;5054890;28;19920;-72
2022/04/01 14:23:20;;;;;;;;;;;;;;;19.97;38.05;98394.56;5073017;28;19912;-72
2022/04/01 14:26:06;;;;;;;;;;;;;;;19.43;39.76;98397.88;5062999;28;19921;-72
2022/04/01 14:28:50;;;;;;;;;;;;;;;19.78;39.09;98403.75;5067547;28;20310;-72
2022/04/01 14:31:57;;;;;;;;;;;;;;;19.05;39.98;98400.34;5050142;28;19916;-71
2022/04/01 14:34:42;;;;;;;;;;;;;;;17.72;41.54;98397.13;5071335;28;20279;-72
2022/04/01 14:37:27;;;;;;;;;;;;;;;18.31;40.66;98399.16;5073079;28;19913;-72